メインページ
METAR-TAF:

METAR-TAF

空港 :

Fort St. John, ブリティッシュコロンビア州, カナダ

緯度: 56-14N, 経度: 120-44W, 海抜: 695m

現時点の気象観測

当レポートは1時間2分前の05:00(UTC)に作成
北東の風 5kt、からの間で変化する
気温 18°C
湿度 73%
気圧 1017 hPa
視程: 48.3km
高度16000ftの雲はほとんどない
高度23000ftの雲はほとんどない

METAR: CYXJ 220500Z 05005KT 010V090 30SM FEW160 FEW230 18/13 A3003 RMK AC2CI1 CI TR SLP176 DENSITY ALT 3100FT

時間: 23:02 (06:02 UTC)

予報

当レポートは5時間6分前の00:56(UTC)に作成
予報は22日の 01時(UTC)から 22日の 13時(UTC)まで有効
南/南東の風 7kt
視程: 10km
高度5000ftの雲は散在している
22日の 01時(UTC)から 22日の 04時(UTC)まで一時的に
視程: 10km
高度5000ftの千切れ雲あり
弱いにわか雨
確率 30%
22日の 01時(UTC)から 22日の 04時(UTC)まで
変向風 15kt、最大25ktの突風を伴う
視程: 8.0km
高度5000ftの千切れ雲あり, 積乱雲.
激しい雷雨, 雨
22日の 0400時(UTC)から
の風 5kt
視程: 10km
高度5000ftの雲は散在している
確率 30%
22日の 10時(UTC)から 22日の 13時(UTC)まで
視程: 0.8km

TAF: CYXJ 220056Z 2201/2213 15007KT P6SM SCT050 TEMPO 2201/2204 P6SM -SHRA BKN050 PROB30 2201/2204 VRB15G25KT 5SM TSRA BKN050CB FM220400 17005KT P6SM SCT050 PROB30 2210/2213 1/2SM FG RMK NXT FCST BY 220700Z

4,000以上の空港の気象観測と天気予報(METAR報とTAF報)

利用可能な観測所は地図上に黄色い丸と赤い丸で示す。

丸の上にカーソルを重ねると観測所名を参照できる。

次にクリックすると気象観測と天気予報を参照できる。

マップの切り替え:黒色「×」印の緑ボタンをクリックして拡大、「-」印の緑ボタンをクリックして縮小、緑色の三角印をクリックして隣りの地図に切り替え


METAR-TAF: